createdAt,value
2017-11-22T00:03:34.555Z,161.62
2017-11-22T00:06:03.027Z,72.00
2017-11-22T00:08:33.816Z,58.73
2017-11-22T00:11:01.547Z,99.57
2017-11-22T00:13:29.188Z,138.27
2017-11-22T00:15:56.822Z,65.17
2017-11-22T00:18:24.541Z,66.07
2017-11-22T00:20:52.192Z,47.20
2017-11-22T00:23:19.839Z,132.57
2017-11-22T00:25:47.551Z,128.60
2017-11-22T00:28:15.189Z,79.43
2017-11-22T00:30:43.338Z,84.17
2017-11-22T00:33:11.062Z,48.20
2017-11-22T00:35:39.544Z,53.70
2017-11-22T00:38:07.183Z,59.33
2017-11-22T00:40:34.881Z,62.50
2017-11-22T00:43:02.528Z,57.10
2017-11-22T00:45:30.168Z,26.97
2017-11-22T00:47:58.852Z,48.73
2017-11-22T00:50:27.292Z,55.53
2017-11-22T00:52:55.784Z,29.87
2017-11-22T00:55:23.961Z,40.37
2017-11-22T00:57:53.618Z,714.87
2017-11-22T01:00:21.275Z,129.47
2017-11-22T01:02:49.000Z,30.70
2017-11-22T01:05:16.649Z,30.40
2017-11-22T01:07:45.057Z,23.53
2017-11-22T01:10:12.754Z,55.33
2017-11-22T01:12:40.390Z,66.17
2017-11-22T01:15:08.875Z,232.30
2017-11-22T01:17:36.603Z,173.13
2017-11-22T01:20:04.259Z,255.80
2017-11-22T01:22:32.260Z,277.77
2017-11-22T01:24:59.958Z,257.07
2017-11-22T01:30:11.034Z,523.97
2017-11-22T01:32:38.406Z,365.87
2017-11-22T01:35:06.926Z,399.80
2017-11-22T01:37:35.656Z,76.83
2017-11-22T01:40:03.298Z,65.17
2017-11-22T01:42:31.424Z,93.00
2017-11-22T01:44:59.208Z,59.80
2017-11-22T01:47:26.848Z,110.47
2017-11-22T01:49:54.498Z,56.17
2017-11-22T01:52:22.192Z,63.37
2017-11-22T01:54:49.848Z,73.50
2017-11-22T01:57:17.467Z,27.83
2017-11-22T01:59:45.198Z,63.80
2017-11-22T02:02:12.845Z,66.67
2017-11-22T02:04:41.459Z,52.93
2017-11-22T02:07:09.157Z,58.03
2017-11-22T02:09:36.792Z,153.63
2017-11-22T02:12:05.283Z,58.87
2017-11-22T02:14:32.998Z,45.07
2017-11-22T02:17:00.637Z,55.83
2017-11-22T02:19:28.781Z,41.50
2017-11-22T02:21:56.474Z,88.57
2017-11-22T02:24:24.114Z,47.73
2017-11-22T02:26:51.795Z,64.90
2017-11-22T02:29:19.496Z,77.17
2017-11-22T02:34:26.330Z,188.70
2017-11-22T02:36:53.988Z,158.50
2017-11-22T02:39:21.634Z,72.27
2017-11-22T02:41:49.329Z,55.27
2017-11-22T02:44:16.971Z,294.83
2017-11-22T02:46:44.623Z,109.60
2017-11-22T02:49:12.339Z,44.27
2017-11-22T02:51:39.978Z,61.57
2017-11-22T02:54:08.448Z,52.43
2017-11-22T02:56:36.131Z,66.03
2017-11-22T02:59:04.606Z,38.67
2017-11-22T03:01:32.247Z,39.43
2017-11-22T03:03:59.956Z,42.13
2017-11-22T03:06:27.596Z,60.83
2017-11-22T03:08:55.238Z,78.60
2017-11-22T03:11:22.941Z,85.63
2017-11-22T03:13:50.589Z,225.97
2017-11-22T03:16:18.242Z,35.70
2017-11-22T03:18:45.930Z,130.77
2017-11-22T03:21:13.562Z,28.10
2017-11-22T03:23:41.229Z,40.93
2017-11-22T03:26:08.939Z,53.57
2017-11-22T03:28:36.586Z,191.80
2017-11-22T03:31:05.075Z,89.43
2017-11-22T03:33:32.789Z,174.60
2017-11-22T03:36:00.438Z,138.57
2017-11-22T03:38:28.082Z,39.63
2017-11-22T03:40:55.782Z,82.17
2017-11-22T03:43:23.422Z,127.43
2017-11-22T03:45:51.067Z,35.80
2017-11-22T03:48:18.789Z,102.57
2017-11-22T03:50:52.998Z,54.33
2017-11-22T03:53:26.394Z,81.37
2017-11-22T04:01:01.271Z,296.02
2017-11-22T04:03:28.924Z,111.97
2017-11-22T04:05:56.571Z,94.87
2017-11-22T04:08:27.454Z,95.30
2017-11-22T04:10:55.103Z,135.27
2017-11-22T04:13:22.770Z,81.10
2017-11-22T04:15:50.468Z,100.87
2017-11-22T04:18:20.072Z,41.93
2017-11-22T04:20:53.341Z,119.97
2017-11-22T04:23:21.062Z,114.03
2017-11-22T04:25:48.700Z,49.10
2017-11-22T04:28:16.403Z,135.23
2017-11-22T04:30:44.059Z,172.20
2017-11-22T04:33:11.711Z,221.30
2017-11-22T04:35:40.142Z,234.97
2017-11-22T04:38:07.782Z,70.53
2017-11-22T04:40:35.428Z,46.37
2017-11-22T04:43:03.583Z,66.80
2017-11-22T04:45:32.173Z,31.63
2017-11-22T04:47:59.813Z,67.83
2017-11-22T04:50:27.536Z,104.00
2017-11-22T04:52:55.172Z,61.80
2017-11-22T04:55:22.807Z,41.17
2017-11-22T04:57:50.515Z,271.23
2017-11-22T05:00:18.163Z,47.13
2017-11-22T05:02:45.806Z,38.87
2017-11-22T05:05:13.540Z,54.93
2017-11-22T05:07:41.186Z,96.43
2017-11-22T05:10:08.835Z,146.97
2017-11-22T05:12:36.538Z,44.43
2017-11-22T05:15:04.175Z,68.30
2017-11-22T05:17:31.824Z,52.03
2017-11-22T05:19:59.547Z,56.93
2017-11-22T05:22:27.190Z,70.03
2017-11-22T05:24:55.784Z,32.23
2017-11-22T05:30:02.577Z,83.97
2017-11-22T05:32:30.262Z,63.93
2017-11-22T05:34:57.893Z,30.83
2017-11-22T05:37:25.524Z,34.83
2017-11-22T05:39:53.233Z,82.53
2017-11-22T05:42:20.875Z,62.27
2017-11-22T05:44:48.522Z,62.83
2017-11-22T05:47:16.209Z,181.13
2017-11-22T05:49:43.864Z,102.93
2017-11-22T05:52:11.511Z,97.37
2017-11-22T05:54:39.213Z,47.13
2017-11-22T05:57:06.840Z,63.00
2017-11-22T05:59:34.499Z,33.77
2017-11-22T06:02:02.225Z,16.53
2017-11-22T06:04:29.852Z,42.30
2017-11-22T06:06:57.490Z,11.40
2017-11-22T06:09:25.169Z,16.03
2017-11-22T06:11:52.813Z,39.47
2017-11-22T06:14:20.460Z,190.23
2017-11-22T06:16:48.176Z,16.00
2017-11-22T06:19:15.829Z,20.43
2017-11-22T06:21:44.076Z,21.17
2017-11-22T06:24:11.777Z,53.80
2017-11-22T06:26:39.433Z,156.33
2017-11-22T06:29:07.070Z,67.87
2017-11-22T06:31:34.792Z,44.87
2017-11-22T06:34:02.435Z,65.73
2017-11-22T06:36:30.080Z,22.93
2017-11-22T06:38:57.778Z,27.60
2017-11-22T06:41:25.415Z,49.13
2017-11-22T06:43:53.054Z,12.77
2017-11-22T06:46:20.777Z,47.60
2017-11-22T06:48:48.415Z,60.93
2017-11-22T06:53:56.094Z,44.00
2017-11-22T06:56:23.738Z,199.67
2017-11-22T06:58:51.379Z,234.07
2017-11-22T07:01:19.077Z,336.40
2017-11-22T07:03:52.319Z,32.47
2017-11-22T07:06:20.047Z,87.67
2017-11-22T07:08:47.687Z,35.63
2017-11-22T07:11:16.272Z,71.47
2017-11-22T07:13:43.990Z,48.90
2017-11-22T07:16:17.230Z,91.73
2017-11-22T07:18:45.907Z,108.53
2017-11-22T07:21:13.567Z,196.33
2017-11-22T07:23:41.216Z,36.50
2017-11-22T07:26:08.914Z,117.73
2017-11-22T07:28:37.432Z,93.77
2017-11-22T07:31:05.072Z,39.43
2017-11-22T07:33:33.663Z,43.03
2017-11-22T07:36:06.935Z,52.00
2017-11-22T07:38:35.446Z,397.77
2017-11-22T07:41:03.082Z,460.93
2017-11-22T07:43:30.719Z,381.13
2017-11-22T07:45:58.444Z,391.50
2017-11-22T07:48:26.555Z,337.53
2017-11-22T07:53:34.657Z,149.70
2017-11-22T07:56:02.316Z,56.97
2017-11-22T07:58:29.976Z,88.13
2017-11-22T08:00:57.691Z,99.53
2017-11-22T08:03:28.160Z,75.70
2017-11-22T08:05:55.801Z,38.07
2017-11-22T08:08:23.526Z,37.67
2017-11-22T08:10:51.153Z,21.77
2017-11-22T08:13:18.804Z,25.50
2017-11-22T08:15:47.238Z,38.83
2017-11-22T08:18:14.875Z,44.73
2017-11-22T08:20:45.373Z,228.63
2017-11-22T08:23:13.090Z,513.00
2017-11-22T08:25:40.731Z,286.67
2017-11-22T08:28:08.378Z,309.23
2017-11-22T08:30:37.797Z,575.20
2017-11-22T08:33:05.456Z,211.80
2017-11-22T08:35:33.104Z,126.80
2017-11-22T08:38:00.826Z,132.03
2017-11-22T08:40:28.457Z,89.43
2017-11-22T08:43:01.694Z,72.13
2017-11-22T08:45:29.341Z,71.87
2017-11-22T08:47:56.981Z,69.00
2017-11-22T08:50:24.705Z,87.90
2017-11-22T08:52:52.347Z,89.50
2017-11-22T08:55:25.777Z,82.47
2017-11-22T08:57:59.008Z,83.53
2017-11-22T09:00:26.710Z,146.03
2017-11-22T09:02:55.289Z,192.10
2017-11-22T09:05:22.948Z,138.87
2017-11-22T09:07:50.655Z,37.47
2017-11-22T09:10:18.300Z,42.10
2017-11-22T09:15:27.493Z,145.70
2017-11-22T09:17:56.504Z,67.77
2017-11-22T09:20:24.145Z,105.97
2017-11-22T09:22:51.850Z,187.20
2017-11-22T09:25:22.324Z,30.77
2017-11-22T09:27:56.626Z,148.00
2017-11-22T09:30:24.269Z,231.23
2017-11-22T09:32:51.921Z,58.73
2017-11-22T09:35:20.435Z,219.67
2017-11-22T09:37:48.085Z,143.67
2017-11-22T09:40:15.732Z,74.90
2017-11-22T09:42:43.427Z,77.03
2017-11-22T09:45:11.071Z,88.40
2017-11-22T09:47:38.721Z,200.97
2017-11-22T09:50:06.422Z,82.83
2017-11-22T09:52:34.065Z,49.07
2017-11-22T09:55:01.699Z,43.27
2017-11-22T09:57:29.419Z,50.50
2017-11-22T09:59:57.058Z,42.67
2017-11-22T10:02:24.701Z,83.50
2017-11-22T10:04:52.394Z,71.70
2017-11-22T10:07:20.040Z,39.37
2017-11-22T10:09:47.691Z,41.83
2017-11-22T10:12:16.150Z,35.90
2017-11-22T10:14:44.745Z,35.70
2017-11-22T10:17:12.389Z,38.07
2017-11-22T10:19:43.758Z,36.17
2017-11-22T10:22:11.400Z,29.43
2017-11-22T10:24:44.090Z,40.93
2017-11-22T10:27:18.224Z,29.87
2017-11-22T10:29:46.890Z,33.47
2017-11-22T10:32:20.086Z,28.33
2017-11-22T10:34:47.774Z,31.77
2017-11-22T10:37:15.407Z,18.20
2017-11-22T10:42:22.238Z,21.45
2017-11-22T10:44:49.870Z,15.67
2017-11-22T10:47:17.515Z,13.50
2017-11-22T10:49:45.201Z,20.90
2017-11-22T10:52:12.833Z,16.40
2017-11-22T10:54:40.466Z,18.00
2017-11-22T10:57:08.164Z,15.83
2017-11-22T10:59:35.799Z,14.03
2017-11-22T11:02:04.239Z,14.03
2017-11-22T11:04:31.932Z,14.17
2017-11-22T11:06:59.558Z,13.30
2017-11-22T11:09:27.186Z,11.50
2017-11-22T11:11:54.880Z,9.10
2017-11-22T11:14:22.510Z,12.53
2017-11-22T11:16:50.142Z,9.40
2017-11-22T11:19:17.839Z,9.83
2017-11-22T11:21:45.465Z,10.10
2017-11-22T11:24:13.093Z,8.40
2017-11-22T11:26:40.811Z,7.60
2017-11-22T11:29:08.436Z,10.87
2017-11-22T11:31:36.061Z,9.90
2017-11-22T11:34:04.742Z,11.60
2017-11-22T11:36:34.346Z,7.23
2017-11-22T11:41:44.456Z,10.65
2017-11-22T11:44:13.044Z,10.00
2017-11-22T11:46:40.675Z,7.27
2017-11-22T11:49:08.404Z,7.60
2017-11-22T11:51:36.034Z,7.73
2017-11-22T11:54:04.390Z,6.57
2017-11-22T11:56:32.087Z,10.37
2017-11-22T11:58:59.735Z,8.07
2017-11-22T12:01:27.372Z,10.53
2017-11-22T12:03:55.064Z,7.17
2017-11-22T12:06:22.699Z,10.13
2017-11-22T12:08:50.335Z,10.23
2017-11-22T12:11:18.046Z,14.00
2017-11-22T12:13:45.676Z,8.93
2017-11-22T12:16:13.302Z,7.83
2017-11-22T12:18:40.993Z,8.37
2017-11-22T12:21:09.593Z,9.97
2017-11-22T12:23:37.241Z,10.33
2017-11-22T12:26:04.962Z,9.30
2017-11-22T12:28:33.205Z,9.80
2017-11-22T12:31:00.832Z,13.70
2017-11-22T12:33:28.534Z,17.47
2017-11-22T12:35:57.002Z,17.33
2017-11-22T12:38:24.637Z,13.13
2017-11-22T12:40:52.329Z,9.20
2017-11-22T12:43:19.974Z,13.50
2017-11-22T12:45:48.470Z,15.43
2017-11-22T12:48:16.166Z,16.63
2017-11-22T12:50:43.802Z,14.70
2017-11-22T12:53:11.964Z,10.97
2017-11-22T12:55:40.405Z,13.77
2017-11-22T13:00:48.662Z,15.52
2017-11-22T13:03:16.311Z,15.90
2017-11-22T13:05:43.946Z,14.67
2017-11-22T13:08:11.654Z,12.97
2017-11-22T13:10:44.974Z,12.23
2017-11-22T13:13:12.657Z,19.87
2017-11-22T13:15:40.302Z,21.70
2017-11-22T13:18:07.944Z,18.50
2017-11-22T13:20:35.654Z,21.10
2017-11-22T13:23:03.301Z,13.37
2017-11-22T13:25:30.940Z,13.60
2017-11-22T13:27:58.634Z,14.87
2017-11-22T13:30:26.288Z,15.77
2017-11-22T13:32:53.929Z,15.40
2017-11-22T13:35:22.473Z,15.13
2017-11-22T13:37:50.108Z,14.33
2017-11-22T13:40:17.733Z,9.33
2017-11-22T13:42:47.418Z,11.13
2017-11-22T13:45:15.049Z,12.27
2017-11-22T13:47:42.691Z,8.83
2017-11-22T13:50:10.422Z,9.17
2017-11-22T13:52:38.066Z,15.33
2017-11-22T13:55:05.699Z,13.10
2017-11-22T13:57:33.385Z,10.53
2017-11-22T14:00:01.032Z,14.13
2017-11-22T14:02:28.663Z,10.87
2017-11-22T14:04:56.376Z,9.83
2017-11-22T14:07:24.383Z,15.63
2017-11-22T14:09:52.028Z,10.73
2017-11-22T14:12:19.717Z,9.90
2017-11-22T14:14:47.353Z,7.93
2017-11-22T14:17:15.950Z,9.73
2017-11-22T14:19:43.664Z,12.03
2017-11-22T14:22:11.318Z,10.03
2017-11-22T14:24:38.946Z,7.23
2017-11-22T14:29:46.622Z,9.10
2017-11-22T14:32:15.281Z,9.33
2017-11-22T14:34:42.911Z,10.80
2017-11-22T14:37:11.306Z,9.23
2017-11-22T14:39:39.038Z,8.57
2017-11-22T14:42:06.669Z,8.00
2017-11-22T14:44:34.300Z,7.10
2017-11-22T14:47:02.019Z,6.00
2017-11-22T14:49:29.656Z,8.60
2017-11-22T14:51:57.293Z,7.43
2017-11-22T14:54:25.010Z,7.97
2017-11-22T14:56:53.469Z,7.83
2017-11-22T14:59:21.125Z,9.63
2017-11-22T15:01:49.763Z,7.13
2017-11-22T15:04:17.455Z,10.13
2017-11-22T15:06:45.092Z,4.53
2017-11-22T15:09:12.810Z,7.90
2017-11-22T15:11:40.470Z,7.87
2017-11-22T15:14:08.929Z,10.63
2017-11-22T15:16:36.625Z,13.57
2017-11-22T15:19:04.271Z,20.43
2017-11-22T15:21:31.909Z,12.27
2017-11-22T15:23:59.606Z,17.83
2017-11-22T15:26:27.272Z,14.47
2017-11-22T15:28:55.866Z,12.70
2017-11-22T15:31:23.583Z,14.97
2017-11-22T15:33:51.213Z,17.63
2017-11-22T15:36:18.853Z,19.53
2017-11-22T15:38:47.516Z,51.37
2017-11-22T15:41:15.166Z,36.97
2017-11-22T15:43:42.832Z,12.70
2017-11-22T15:46:10.514Z,10.40
2017-11-22T15:48:38.159Z,15.13
2017-11-22T15:51:05.792Z,16.30
2017-11-22T15:53:33.476Z,18.27
2017-11-22T15:58:40.731Z,17.35
2017-11-22T16:01:08.376Z,15.77
2017-11-22T16:03:36.019Z,14.30
2017-11-22T16:06:04.678Z,13.77
2017-11-22T16:08:32.327Z,11.67
2017-11-22T16:11:00.918Z,12.70
2017-11-22T16:13:28.637Z,16.23
2017-11-22T16:15:56.302Z,12.97
2017-11-22T16:18:23.951Z,16.97
2017-11-22T16:20:51.700Z,14.07
2017-11-22T16:23:19.353Z,15.13
2017-11-22T16:25:46.991Z,9.17
2017-11-22T16:28:14.705Z,9.10
2017-11-22T16:30:43.172Z,9.47
2017-11-22T16:33:11.772Z,19.63
2017-11-22T16:35:39.489Z,17.20
2017-11-22T16:38:07.125Z,16.57
2017-11-22T16:40:34.781Z,13.93
2017-11-22T16:43:03.298Z,16.20
2017-11-22T16:45:30.951Z,16.17
2017-11-22T16:47:58.589Z,16.67
2017-11-22T16:50:26.315Z,18.63
2017-11-22T16:52:53.953Z,17.80
2017-11-22T16:55:22.477Z,12.93
2017-11-22T16:57:50.183Z,17.27
2017-11-22T17:00:17.834Z,20.13
2017-11-22T17:02:45.471Z,12.43
2017-11-22T17:05:13.202Z,12.50
2017-11-22T17:07:40.850Z,15.00
2017-11-22T17:10:08.510Z,17.97
2017-11-22T17:12:36.226Z,11.80
2017-11-22T17:17:45.037Z,11.27
2017-11-22T17:20:12.692Z,11.47
2017-11-22T17:22:40.357Z,10.37
2017-11-22T17:25:09.013Z,20.57
2017-11-22T17:27:36.648Z,17.50
2017-11-22T17:30:04.298Z,20.50
2017-11-22T17:32:32.010Z,11.67
2017-11-22T17:35:00.132Z,13.60
2017-11-22T17:37:28.273Z,14.50
2017-11-22T17:39:55.963Z,13.93
2017-11-22T17:42:23.608Z,16.17
2017-11-22T17:44:51.246Z,13.77
2017-11-22T17:47:18.978Z,17.57
2017-11-22T17:49:46.621Z,25.50
2017-11-22T17:52:14.754Z,15.70
2017-11-22T17:54:43.503Z,15.50
2017-11-22T17:59:53.365Z,21.50
2017-11-22T18:02:21.448Z,20.27
2017-11-22T18:04:50.803Z,19.23
2017-11-22T18:07:18.511Z,17.07
2017-11-22T18:09:46.158Z,22.17
2017-11-22T18:12:14.753Z,17.30
2017-11-22T18:14:43.415Z,24.20
2017-11-22T18:17:11.047Z,23.30
2017-11-22T18:19:39.285Z,18.63
2017-11-22T18:22:07.475Z,21.43
2017-11-22T18:24:35.158Z,22.27
2017-11-22T18:27:02.864Z,18.77
2017-11-22T18:29:30.550Z,21.83
2017-11-22T18:31:59.170Z,25.80
2017-11-22T18:34:26.830Z,23.70
2017-11-22T18:36:54.859Z,20.10
2017-11-22T18:39:22.492Z,20.43
2017-11-22T18:41:50.167Z,25.87
2017-11-22T18:44:17.873Z,23.70
2017-11-22T18:46:45.512Z,24.07
2017-11-22T18:49:13.250Z,24.00
2017-11-22T18:51:40.963Z,25.23
2017-11-22T18:54:08.592Z,26.70
2017-11-22T18:56:36.258Z,24.43
2017-11-22T18:59:04.027Z,24.87
2017-11-22T19:01:32.186Z,26.17
2017-11-22T19:03:59.840Z,28.37
2017-11-22T19:06:27.529Z,22.43
2017-11-22T19:08:56.153Z,25.00
2017-11-22T19:11:23.853Z,24.20
2017-11-22T19:13:51.547Z,20.10
2017-11-22T19:16:19.241Z,21.73
2017-11-22T19:21:26.779Z,22.17
2017-11-22T19:23:54.441Z,22.83
2017-11-22T19:26:22.080Z,25.07
2017-11-22T19:28:49.766Z,24.07
2017-11-22T19:31:18.252Z,23.20
2017-11-22T19:33:57.602Z,28.07
2017-11-22T19:36:25.260Z,19.47
2017-11-22T19:38:52.907Z,20.10
2017-11-22T19:41:20.660Z,15.13
2017-11-22T19:43:48.323Z,17.57
2017-11-22T19:46:16.002Z,19.00
2017-11-22T19:48:43.734Z,16.07
2017-11-22T19:51:11.416Z,16.50
2017-11-22T19:53:39.093Z,14.90
2017-11-22T19:56:06.808Z,13.37
2017-11-22T19:58:34.484Z,20.93
2017-11-22T20:01:02.189Z,23.07
2017-11-22T20:03:29.855Z,22.30
2017-11-22T20:05:57.503Z,19.93
2017-11-22T20:08:36.941Z,21.50
2017-11-22T20:11:04.600Z,19.40
2017-11-22T20:13:32.231Z,19.93
2017-11-22T20:16:00.156Z,23.67
2017-11-22T20:18:27.766Z,20.73
2017-11-22T20:20:56.703Z,23.90
2017-11-22T20:23:23.724Z,22.50
2017-11-22T20:25:51.454Z,26.50
2017-11-22T20:28:19.351Z,23.67
2017-11-22T20:30:47.089Z,21.93
2017-11-22T20:35:54.222Z,26.05
2017-11-22T20:38:21.846Z,24.77
2017-11-22T20:43:29.614Z,25.00
2017-11-22T20:45:57.408Z,21.87
2017-11-22T20:53:43.648Z,19.30
2017-11-22T20:56:14.417Z,18.37
2017-11-22T20:58:42.130Z,13.50
2017-11-22T21:01:10.240Z,13.67
2017-11-22T21:03:37.965Z,14.37
2017-11-22T21:06:07.855Z,13.70
2017-11-22T21:08:34.386Z,14.97
2017-11-22T21:11:02.081Z,12.80
2017-11-22T21:13:29.958Z,17.30
2017-11-22T21:15:57.574Z,12.50
2017-11-22T21:18:31.178Z,16.40
2017-11-22T21:20:58.844Z,13.63
2017-11-22T21:23:26.647Z,11.93
2017-11-22T21:25:54.433Z,13.73
2017-11-22T21:28:23.348Z,18.00
2017-11-22T21:30:51.093Z,14.23
2017-11-22T21:33:19.684Z,14.77
2017-11-22T21:38:27.256Z,14.23
2017-11-22T21:40:54.967Z,13.50
2017-11-22T21:43:22.584Z,9.00
2017-11-22T21:45:50.352Z,18.43
2017-11-22T21:48:18.057Z,16.97
2017-11-22T21:50:45.706Z,17.37
2017-11-22T21:53:13.390Z,17.97
2017-11-22T21:55:41.024Z,16.77
2017-11-22T21:58:08.659Z,16.37
2017-11-22T22:00:36.376Z,22.60
2017-11-22T22:03:04.010Z,20.43
2017-11-22T22:05:31.655Z,22.83
2017-11-22T22:07:59.329Z,17.90
2017-11-22T22:10:27.000Z,24.67
2017-11-22T22:12:54.619Z,20.93
2017-11-22T22:15:22.683Z,16.23
2017-11-22T22:17:49.966Z,11.57
2017-11-22T22:20:17.588Z,13.33
2017-11-22T22:22:45.284Z,15.17
2017-11-22T22:25:12.926Z,18.57
2017-11-22T22:27:40.567Z,13.37
2017-11-22T22:30:08.262Z,12.60
2017-11-22T22:32:35.896Z,14.97
2017-11-22T22:35:03.522Z,13.40
2017-11-22T22:37:31.380Z,13.87
2017-11-22T22:39:59.023Z,19.50
2017-11-22T22:42:26.671Z,19.00
2017-11-22T22:44:54.358Z,23.00
2017-11-22T22:47:22.267Z,24.03
2017-11-22T22:49:49.911Z,25.33
2017-11-22T22:52:17.619Z,24.30
2017-11-22T22:54:45.255Z,18.23
2017-11-22T22:57:12.920Z,15.63
2017-11-22T23:02:19.456Z,20.50
2017-11-22T23:04:48.218Z,22.50
2017-11-22T23:07:15.854Z,18.03
2017-11-22T23:09:43.471Z,18.40
2017-11-22T23:12:14.357Z,20.83
2017-11-22T23:14:41.984Z,17.60
2017-11-22T23:17:09.662Z,18.43
2017-11-22T23:19:37.356Z,13.63
2017-11-22T23:22:04.984Z,14.37
2017-11-22T23:24:32.624Z,16.50
2017-11-22T23:27:00.339Z,13.40
2017-11-22T23:29:27.969Z,15.53
2017-11-22T23:31:55.611Z,21.30
2017-11-22T23:34:23.324Z,22.33
2017-11-22T23:36:50.949Z,20.57
2017-11-22T23:39:18.581Z,20.70
2017-11-22T23:41:46.286Z,14.97
2017-11-22T23:44:13.926Z,17.20
2017-11-22T23:46:41.569Z,15.20
2017-11-22T23:49:09.246Z,12.53
2017-11-22T23:51:36.899Z,11.33
2017-11-22T23:54:04.534Z,18.03
2017-11-22T23:56:32.237Z,16.50
2017-11-22T23:58:59.864Z,13.00
